createdAt,value
2023-05-26T00:04:32.575Z,13.11
2023-05-26T00:09:35.531Z,13.18
2023-05-26T00:14:39.596Z,13.15
2023-05-26T00:19:42.976Z,12.79
2023-05-26T00:24:45.903Z,12.63
2023-05-26T00:29:50.225Z,12.42
2023-05-26T00:34:56.020Z,12.90
2023-05-26T00:39:58.855Z,11.03
2023-05-26T00:45:03.488Z,12.67
2023-05-26T00:50:07.673Z,12.69
2023-05-26T00:55:11.319Z,11.79
2023-05-26T01:05:47.099Z,12.56
2023-05-26T01:10:49.933Z,12.22
2023-05-26T01:15:59.963Z,12.48
2023-05-26T01:21:09.278Z,12.07
2023-05-26T01:26:23.016Z,12.30
2023-05-26T01:31:27.370Z,11.98
2023-05-26T01:36:31.362Z,12.25
2023-05-26T01:41:44.954Z,12.30
2023-05-26T01:46:51.761Z,12.14
2023-05-26T01:51:59.205Z,11.95
2023-05-26T01:57:05.259Z,12.00
2023-05-26T02:02:10.345Z,10.95
2023-05-26T02:07:15.726Z,10.38
2023-05-26T02:12:18.797Z,11.34
2023-05-26T02:17:24.998Z,10.58
2023-05-26T02:22:30.141Z,11.10
2023-05-26T02:27:33.003Z,11.34
2023-05-26T02:32:37.309Z,11.46
2023-05-26T02:37:43.079Z,11.43
2023-05-26T02:42:47.184Z,10.21
2023-05-26T02:47:51.439Z,11.43
2023-05-26T02:52:54.524Z,11.52
2023-05-26T02:57:57.269Z,9.92
2023-05-26T03:03:01.664Z,11.39
2023-05-26T03:08:04.847Z,11.27
2023-05-26T03:13:07.840Z,11.27
2023-05-26T03:18:12.490Z,10.11
2023-05-26T03:23:15.588Z,10.77
2023-05-26T03:28:18.271Z,11.18
2023-05-26T03:33:22.529Z,11.36
2023-05-26T03:38:26.614Z,11.18
2023-05-26T03:43:29.840Z,10.18
2023-05-26T03:48:34.891Z,11.15
2023-05-26T03:53:38.576Z,11.21
2023-05-26T03:58:41.461Z,11.36
2023-05-26T04:03:48.070Z,10.30
2023-05-26T04:08:52.359Z,11.08
2023-05-26T04:13:55.527Z,11.35
2023-05-26T04:18:59.751Z,11.32
2023-05-26T04:24:04.622Z,11.10
2023-05-26T04:29:07.807Z,10.98
2023-05-26T04:34:17.389Z,10.93
2023-05-26T04:39:31.869Z,10.85
2023-05-26T04:44:34.790Z,11.39
2023-05-26T04:49:41.577Z,11.38
2023-05-26T04:54:50.630Z,11.45
2023-05-26T04:59:54.360Z,10.92
2023-05-26T05:04:58.541Z,11.51
2023-05-26T05:10:01.432Z,11.02
2023-05-26T05:15:08.253Z,11.60
2023-05-26T05:20:16.523Z,11.33
2023-05-26T05:25:27.654Z,11.69
2023-05-26T05:30:31.699Z,11.20
2023-05-26T05:35:36.123Z,11.89
2023-05-26T05:40:39.223Z,11.98
2023-05-26T05:45:42.085Z,12.26
2023-05-26T05:50:46.453Z,12.14
2023-05-26T05:55:49.858Z,11.73
2023-05-26T06:00:52.782Z,12.31
2023-05-26T06:05:57.773Z,12.48
2023-05-26T06:11:00.513Z,12.51
2023-05-26T06:16:08.257Z,12.65
2023-05-26T06:21:12.796Z,12.67
2023-05-26T06:26:17.070Z,12.76
2023-05-26T06:31:20.146Z,12.90
2023-05-26T06:36:30.289Z,12.94
2023-05-26T06:41:33.216Z,13.02
2023-05-26T06:46:35.969Z,13.16
2023-05-26T06:51:40.831Z,13.12
2023-05-26T06:56:43.649Z,13.23
2023-05-26T07:01:46.387Z,13.34
2023-05-26T07:06:50.518Z,13.48
2023-05-26T07:11:57.592Z,13.50
2023-05-26T07:17:22.654Z,13.56
2023-05-26T07:22:26.770Z,13.68
2023-05-26T07:27:36.893Z,13.75
2023-05-26T07:32:40.104Z,13.84
2023-05-26T07:37:44.231Z,13.96
2023-05-26T07:42:46.899Z,13.98
2023-05-26T07:47:49.536Z,14.05
2023-05-26T07:52:53.718Z,14.12
2023-05-26T07:57:56.307Z,14.17
2023-05-26T08:03:00.029Z,14.37
2023-05-26T08:08:04.399Z,14.41
2023-05-26T08:13:07.002Z,14.50
2023-05-26T08:18:09.829Z,14.59
2023-05-26T08:23:14.013Z,14.65
2023-05-26T08:28:16.682Z,14.73
2023-05-26T08:33:19.336Z,14.81
2023-05-26T08:38:23.426Z,14.92
2023-05-26T08:43:45.257Z,14.98
2023-05-26T08:48:50.350Z,15.10
2023-05-26T08:53:54.706Z,15.19
2023-05-26T08:58:57.726Z,15.24
2023-05-26T09:04:00.368Z,15.32
2023-05-26T09:09:06.583Z,15.42
2023-05-26T09:14:09.327Z,15.54
2023-05-26T09:19:15.859Z,15.63
2023-05-26T09:24:21.772Z,15.60
2023-05-26T09:29:24.341Z,15.55
2023-05-26T09:34:26.922Z,15.83
2023-05-26T09:39:34.387Z,15.79
2023-05-26T09:44:37.506Z,15.89
2023-05-26T09:49:40.192Z,15.97
2023-05-26T09:54:44.183Z,15.98
2023-05-26T09:59:51.335Z,16.00
2023-05-26T10:04:55.337Z,16.13
2023-05-26T10:10:00.933Z,16.22
2023-05-26T10:15:05.544Z,16.22
2023-05-26T10:20:10.327Z,16.22
2023-05-26T10:25:22.184Z,16.37
2023-05-26T10:30:26.534Z,16.41
2023-05-26T10:35:31.970Z,16.53
2023-05-26T10:40:42.916Z,16.10
2023-05-26T10:45:46.680Z,16.55
2023-05-26T10:51:09.091Z,16.59
2023-05-26T10:56:14.856Z,16.90
2023-05-26T11:01:23.458Z,16.98
2023-05-26T11:06:37.487Z,16.95
2023-05-26T11:11:51.558Z,17.26
2023-05-26T11:16:58.489Z,17.49
2023-05-26T11:22:01.364Z,17.62
2023-05-26T11:27:06.970Z,17.88
2023-05-26T11:32:10.082Z,18.00
2023-05-26T11:37:12.944Z,18.21
2023-05-26T11:42:16.904Z,18.44
2023-05-26T11:47:23.344Z,18.58
2023-05-26T11:52:25.940Z,18.70
2023-05-26T11:57:32.366Z,18.95
2023-05-26T12:02:35.787Z,19.08
2023-05-26T12:07:38.751Z,19.31
2023-05-26T12:12:49.646Z,19.57
2023-05-26T12:17:53.613Z,19.82
2023-05-26T12:23:02.395Z,20.12
2023-05-26T12:28:07.049Z,20.27
2023-05-26T12:33:09.845Z,20.46
2023-05-26T12:38:13.562Z,20.58
2023-05-26T12:43:17.780Z,20.67
2023-05-26T12:48:20.464Z,20.90
2023-05-26T12:53:23.449Z,21.05
2023-05-26T12:58:27.380Z,21.30
2023-05-26T13:03:30.027Z,21.58
2023-05-26T13:08:33.128Z,21.79
2023-05-26T13:13:37.362Z,21.90
2023-05-26T13:18:40.390Z,22.13
2023-05-26T13:23:43.008Z,22.47
2023-05-26T13:28:46.944Z,22.86
2023-05-26T13:33:49.628Z,23.09
2023-05-26T13:38:52.223Z,23.58
2023-05-26T13:43:56.282Z,23.71
2023-05-26T13:48:59.036Z,24.07
2023-05-26T13:54:02.789Z,24.47
2023-05-26T13:59:07.175Z,24.78
2023-05-26T14:04:09.956Z,25.02
2023-05-26T14:09:12.756Z,25.32
2023-05-26T14:14:17.258Z,25.62
2023-05-26T14:19:22.829Z,25.54
2023-05-26T14:24:26.797Z,25.13
2023-05-26T14:29:30.838Z,24.72
2023-05-26T14:34:33.964Z,24.15
2023-05-26T14:39:36.947Z,23.68
2023-05-26T14:44:40.916Z,23.33
2023-05-26T14:49:43.681Z,22.99
2023-05-26T14:54:46.229Z,22.62
2023-05-26T14:59:50.850Z,22.28
2023-05-26T15:04:53.749Z,22.09
2023-05-26T15:09:56.398Z,21.71
2023-05-26T15:15:00.390Z,21.55
2023-05-26T15:20:04.128Z,21.33
2023-05-26T16:03:45.430Z,20.13
2023-05-26T16:08:48.513Z,20.11
2023-05-26T16:13:52.018Z,20.08
2023-05-26T16:18:55.964Z,20.00
2023-05-26T16:23:58.936Z,19.98
2023-05-26T16:29:02.027Z,19.86
2023-05-26T16:34:06.150Z,19.82
2023-05-26T16:39:08.723Z,19.85
2023-05-26T16:44:11.884Z,19.77
2023-05-26T16:49:15.896Z,19.67
2023-05-26T16:54:18.497Z,19.60
2023-05-26T16:59:21.214Z,19.59
2023-05-26T17:04:25.233Z,19.57
2023-05-26T17:09:28.045Z,19.50
2023-05-26T17:14:33.384Z,19.51
2023-05-26T17:19:37.421Z,19.44
2023-05-26T17:24:40.007Z,19.35
2023-05-26T17:29:42.604Z,19.32
2023-05-26T17:34:46.800Z,19.25
2023-05-26T17:39:50.079Z,19.20
2023-05-26T17:44:52.836Z,19.18
2023-05-26T17:49:58.063Z,19.11
2023-05-26T17:55:00.640Z,19.01
2023-05-26T18:00:03.486Z,18.93
2023-05-26T18:05:16.563Z,18.88
2023-05-26T18:10:19.217Z,18.75
2023-05-26T18:15:21.829Z,18.69
2023-05-26T18:20:28.155Z,18.49
2023-05-26T18:25:32.923Z,18.56
2023-05-26T18:30:35.571Z,18.45
2023-05-26T18:35:39.890Z,18.37
2023-05-26T18:40:42.477Z,18.27
2023-05-26T18:45:45.058Z,18.19
2023-05-26T18:50:48.989Z,18.12
2023-05-26T18:55:52.172Z,18.08
2023-05-26T19:00:54.889Z,17.94
2023-05-26T19:05:58.822Z,17.87
2023-05-26T19:11:01.675Z,17.80
2023-05-26T19:16:04.558Z,17.69
2023-05-26T19:21:08.633Z,17.58
2023-05-26T19:26:11.242Z,17.43
2023-05-26T19:31:15.244Z,17.37
2023-05-26T19:36:19.302Z,17.24
2023-05-26T19:41:22.827Z,17.22
2023-05-26T19:46:25.457Z,17.06
2023-05-26T19:51:29.802Z,17.10
2023-05-26T19:56:32.366Z,16.96
2023-05-26T20:01:35.070Z,16.77
2023-05-26T20:06:41.833Z,16.53
2023-05-26T20:11:44.610Z,16.36
2023-05-26T20:16:47.553Z,16.20
2023-05-26T20:21:52.107Z,16.05
2023-05-26T20:26:54.678Z,15.94
2023-05-26T20:31:57.272Z,15.85
2023-05-26T20:37:01.322Z,15.78
2023-05-26T20:42:04.329Z,15.71
2023-05-26T20:47:07.807Z,15.63
2023-05-26T20:52:12.599Z,15.19
2023-05-26T20:57:15.266Z,15.42
2023-05-26T21:02:17.967Z,15.44
2023-05-26T21:07:22.410Z,15.29
2023-05-26T21:12:25.019Z,15.30
2023-05-26T21:17:27.634Z,15.28
2023-05-26T21:22:32.199Z,15.25
2023-05-26T21:27:34.781Z,15.19
2023-05-26T21:32:37.518Z,15.07
2023-05-26T21:37:41.518Z,15.04
2023-05-26T21:42:44.111Z,15.05
2023-05-26T21:47:46.759Z,15.01
2023-05-26T21:52:51.812Z,14.96
2023-05-26T21:57:54.515Z,14.81
2023-05-26T22:02:57.167Z,14.80
2023-05-26T22:08:01.312Z,14.74
2023-05-26T22:13:04.703Z,14.70
2023-05-26T22:18:07.310Z,14.65
2023-05-26T22:23:11.341Z,14.61
2023-05-26T22:28:14.123Z,14.56
2023-05-26T22:33:16.827Z,14.47
2023-05-26T22:38:21.914Z,14.38
2023-05-26T22:43:24.546Z,14.38
2023-05-26T22:48:27.161Z,14.32
2023-05-26T22:53:31.090Z,14.27
2023-05-26T22:58:33.698Z,14.20
2023-05-26T23:03:38.078Z,14.16
2023-05-26T23:08:42.230Z,14.09
2023-05-26T23:13:44.864Z,14.02
2023-05-26T23:18:48.081Z,13.99
2023-05-26T23:23:52.043Z,13.92
2023-05-26T23:28:54.631Z,13.88
2023-05-26T23:33:57.281Z,13.87
2023-05-26T23:39:01.283Z,13.76
2023-05-26T23:44:03.934Z,13.69
2023-05-26T23:49:07.063Z,13.58
2023-05-26T23:54:11.082Z,13.63
2023-05-26T23:59:13.687Z,13.59
